createdAt,value
2022-08-23T00:01:50.405Z,14.1
2022-08-23T00:06:48.506Z,14.1
2022-08-23T00:11:46.677Z,14
2022-08-23T00:16:44.696Z,14.1
2022-08-23T00:21:42.545Z,14.1
2022-08-23T00:26:40.397Z,14.1
2022-08-23T00:31:39.442Z,14.1
2022-08-23T00:36:37.338Z,13.9
2022-08-23T00:41:35.233Z,13.9
2022-08-23T00:46:37.282Z,14
2022-08-23T00:51:34.819Z,13.8
2022-08-23T00:56:33.002Z,13.9
2022-08-23T01:01:31.280Z,13.9
2022-08-23T01:06:29.352Z,14.1
2022-08-23T01:11:27.514Z,14.2
2022-08-23T01:16:25.649Z,14.2
2022-08-23T01:21:23.646Z,14.1
2022-08-23T01:26:22.201Z,14
2022-08-23T01:31:19.733Z,13.9
2022-08-23T01:36:17.874Z,14
2022-08-23T01:41:15.983Z,13.9
2022-08-23T01:46:13.865Z,13.8
2022-08-23T01:51:11.955Z,13.8
2022-08-23T01:56:14.034Z,14
2022-08-23T02:01:11.496Z,14.1
2022-08-23T02:06:09.509Z,14.3
2022-08-23T02:11:07.747Z,14.5
2022-08-23T02:16:05.984Z,14.7
2022-08-23T02:21:03.980Z,14.6
2022-08-23T02:26:02.064Z,14.6
2022-08-23T02:31:00.300Z,14.7
2022-08-23T02:35:58.533Z,14.7
2022-08-23T02:41:00.900Z,14.7
2022-08-23T02:45:54.887Z,14.7
2022-08-23T02:50:52.863Z,14.6
2022-08-23T02:55:50.917Z,14.4
2022-08-23T03:00:48.950Z,14.4
2022-08-23T03:05:46.782Z,14.4
2022-08-23T03:10:44.715Z,14.4
2022-08-23T03:15:42.714Z,14.4
2022-08-23T03:20:40.873Z,14.4
2022-08-23T03:25:39.164Z,14.6
2022-08-23T03:30:37.295Z,14.7
2022-08-23T03:35:35.540Z,14.7
2022-08-23T03:40:33.586Z,14.6
2022-08-23T03:45:31.807Z,14.7
2022-08-23T03:50:30.084Z,14.8
2022-08-23T03:55:28.231Z,14.8
2022-08-23T04:00:26.517Z,14.9
2022-08-23T04:05:24.809Z,15.2
2022-08-23T04:10:26.777Z,15.5
2022-08-23T04:15:24.099Z,15.5
2022-08-23T04:20:22.611Z,15.7
2022-08-23T04:25:34.066Z,15.7
2022-08-23T04:30:19.279Z,15.7
2022-08-23T04:35:17.613Z,15.8
2022-08-23T04:40:16.493Z,16
2022-08-23T04:45:15.709Z,16.2
2022-08-23T04:50:14.201Z,16.3
2022-08-23T04:55:12.648Z,16.5
2022-08-23T05:00:11.212Z,17.2
2022-08-23T05:05:09.610Z,17.4
2022-08-23T05:10:07.991Z,17.8
2022-08-23T05:15:06.034Z,17.7
2022-08-23T05:20:04.163Z,18
2022-08-23T05:25:02.577Z,18.2
2022-08-23T05:30:00.495Z,18
2022-08-23T05:34:58.166Z,17.5
2022-08-23T05:39:55.916Z,17.4
2022-08-23T05:44:54.048Z,17.4
2022-08-23T05:49:52.077Z,17.3
2022-08-23T05:54:49.857Z,17.4
2022-08-23T05:59:47.781Z,17.3
2022-08-23T06:04:45.949Z,17.6
2022-08-23T06:09:44.475Z,18.5
2022-08-23T06:14:43.279Z,19.1
2022-08-23T06:19:41.901Z,19.5
2022-08-23T06:24:40.320Z,19.9
2022-08-23T06:29:38.726Z,20.2
2022-08-23T06:34:36.723Z,20.2
2022-08-23T06:39:37.307Z,19.7
2022-08-23T06:44:32.707Z,20.1
2022-08-23T06:49:31.407Z,20.9
2022-08-23T06:54:30.789Z,22
2022-08-23T06:59:29.374Z,22.5
2022-08-23T07:04:27.852Z,22.8
2022-08-23T07:09:26.524Z,23.5
2022-08-23T07:14:25.565Z,24.5
2022-08-23T07:19:27.489Z,24.5
2022-08-23T07:24:21.922Z,25
2022-08-23T07:29:23.288Z,29.2
2022-08-23T07:34:26.386Z,32.1
2022-08-23T07:39:21.758Z,28.5
2022-08-23T07:44:18.094Z,26.3
2022-08-23T07:49:14.946Z,29.6
2022-08-23T07:54:18.721Z,31.9
2022-08-23T07:59:13.307Z,28.8
2022-08-23T08:04:15.159Z,33.8
2022-08-23T08:09:14.002Z,34.5
2022-08-23T08:14:12.964Z,32.6
2022-08-23T08:19:08.417Z,34.3
2022-08-23T08:24:08.661Z,34.2
2022-08-23T08:29:02.570Z,30
2022-08-23T08:34:00.584Z,34.1
2022-08-23T08:39:03.130Z,37.1
2022-08-23T08:43:57.605Z,32.9
2022-08-23T08:48:59.296Z,37.3
2022-08-23T08:53:59.474Z,38.7
2022-08-23T08:58:58.212Z,39.4
2022-08-23T09:03:57.845Z,40.2
2022-08-23T09:08:53.317Z,33.4
2022-08-23T09:13:46.404Z,28.9
2022-08-23T09:18:42.825Z,28.4
2022-08-23T09:23:48.787Z,37
2022-08-23T09:28:48.630Z,38
2022-08-23T09:33:47.524Z,36.7
2022-08-23T09:38:43.681Z,34.5
2022-08-23T09:43:39.087Z,33.5
2022-08-23T09:48:37.110Z,35.5
2022-08-23T09:53:40.907Z,35.7
2022-08-23T09:58:35.289Z,37.3
2022-08-23T10:03:33.519Z,36.9
2022-08-23T10:08:30.807Z,36.2
2022-08-23T10:13:28.502Z,36.4
2022-08-23T10:18:27.428Z,37.7
2022-08-23T10:23:24.966Z,37.3
2022-08-23T10:28:22.395Z,36.8
2022-08-23T10:33:20.528Z,36.9
2022-08-23T10:38:18.948Z,36.9
2022-08-23T10:43:17.167Z,37
2022-08-23T10:48:15.373Z,37.3
2022-08-23T10:53:12.173Z,37
2022-08-23T10:58:11.034Z,37.9
2022-08-23T11:03:08.556Z,38.4
2022-08-23T11:08:07.016Z,39
2022-08-23T11:13:05.419Z,38.1
2022-08-23T11:18:03.548Z,39
2022-08-23T11:23:01.227Z,38.5
2022-08-23T11:27:59.041Z,38.6
2022-08-23T11:32:56.925Z,37.8
2022-08-23T11:37:56.216Z,38.7
2022-08-23T11:42:54.283Z,38.5
2022-08-23T11:47:52.497Z,38.3
2022-08-23T11:52:50.438Z,35.8
2022-08-23T11:57:43.387Z,32.1
2022-08-23T12:02:44.457Z,35.2
2022-08-23T12:07:39.794Z,30.9
2022-08-23T12:12:40.936Z,32
2022-08-23T12:17:35.066Z,29.9
2022-08-23T12:22:32.538Z,30.1
2022-08-23T12:27:33.538Z,33.4
2022-08-23T12:32:33.116Z,33.3
2022-08-23T12:37:29.032Z,31.1
2022-08-23T12:42:26.090Z,30.8
2022-08-23T12:47:25.729Z,32.5
2022-08-23T12:52:23.492Z,32.2
2022-08-23T12:57:21.592Z,31.8
2022-08-23T13:02:18.045Z,29.7
2022-08-23T13:07:15.164Z,29.2
2022-08-23T13:12:13.020Z,28.9
2022-08-23T13:17:10.966Z,28.5
2022-08-23T13:22:07.860Z,25.9
2022-08-23T13:27:06.750Z,28.1
2022-08-23T13:32:06.847Z,29.7
2022-08-23T13:37:03.570Z,28.5
2022-08-23T13:42:01.845Z,27.2
2022-08-23T13:46:59.652Z,28.4
2022-08-23T13:52:06.972Z,28
2022-08-23T13:56:58.717Z,27.4
2022-08-23T14:01:56.099Z,28.5
2022-08-23T14:06:53.178Z,27.1
2022-08-23T14:11:50.864Z,27.3
2022-08-23T14:16:48.860Z,26.9
2022-08-23T14:21:46.343Z,25.3
2022-08-23T14:26:48.899Z,24.4
2022-08-23T14:31:43.735Z,24.9
2022-08-23T14:36:41.989Z,24.3
2022-08-23T14:41:39.365Z,24
2022-08-23T14:46:37.281Z,23.6
2022-08-23T14:51:35.094Z,23.4
2022-08-23T14:56:32.918Z,23.3
2022-08-23T15:01:30.975Z,23.3
2022-08-23T15:06:28.526Z,22.8
2022-08-23T15:16:24.388Z,22.5
2022-08-23T15:21:22.132Z,22.1
2022-08-23T15:26:20.192Z,22.1
2022-08-23T15:31:18.215Z,22
2022-08-23T15:36:16.502Z,21.8
2022-08-23T15:41:14.506Z,21.7
2022-08-23T15:46:12.897Z,21.5
2022-08-23T15:51:11.082Z,21.3
2022-08-23T15:56:08.972Z,21.1
2022-08-23T16:01:09.454Z,20.9
2022-08-23T16:06:07.818Z,20.7
2022-08-23T16:11:05.791Z,20.5
2022-08-23T16:16:03.810Z,20.3
2022-08-23T16:21:02.775Z,20.1
2022-08-23T16:26:01.259Z,19.9
2022-08-23T16:30:58.879Z,19.7
2022-08-23T16:35:56.748Z,19.4
2022-08-23T16:40:54.762Z,19.2
2022-08-23T16:45:56.212Z,19
2022-08-23T16:50:53.256Z,18.9
2022-08-23T16:55:51.299Z,18.6
2022-08-23T17:00:49.811Z,18.3
2022-08-23T17:05:48.056Z,18.1
2022-08-23T17:10:46.487Z,17.9
2022-08-23T17:15:44.551Z,17.7
2022-08-23T17:20:42.675Z,17.4
2022-08-23T17:25:41.063Z,17.1
2022-08-23T17:30:39.415Z,17.1
2022-08-23T17:35:38.055Z,17.1
2022-08-23T17:40:36.747Z,17.1
2022-08-23T17:45:35.507Z,17.1
2022-08-23T17:50:33.811Z,17.1
2022-08-23T17:55:32.407Z,17.1
2022-08-23T18:00:30.782Z,17
2022-08-23T18:05:29.305Z,17
2022-08-23T18:10:28.136Z,17.1
2022-08-23T18:15:26.917Z,17.4
2022-08-23T18:20:25.518Z,17.6
2022-08-23T18:25:24.379Z,17.5
2022-08-23T18:30:22.643Z,17.3
2022-08-23T18:35:20.855Z,17.2
2022-08-23T18:40:19.328Z,17
2022-08-23T18:45:17.509Z,17
2022-08-23T18:50:15.933Z,16.9
2022-08-23T18:55:15.371Z,16.8
2022-08-23T19:00:13.578Z,16.7
2022-08-23T19:05:11.724Z,16.7
2022-08-23T19:10:09.885Z,16.6
2022-08-23T19:15:08.029Z,16.4
2022-08-23T19:20:06.424Z,16.2
2022-08-23T19:25:05.482Z,16
2022-08-23T19:30:03.597Z,15.9
2022-08-23T19:35:02.056Z,15.9
2022-08-23T19:40:00.404Z,16.1
2022-08-23T19:44:58.799Z,16.1
2022-08-23T19:49:57.245Z,16.2
2022-08-23T19:54:59.054Z,16.1
2022-08-23T19:59:53.931Z,16
2022-08-23T20:04:51.979Z,15.9
2022-08-23T20:09:50.301Z,15.7
2022-08-23T20:14:48.689Z,15.6
2022-08-23T20:19:46.847Z,15.5
2022-08-23T20:24:52.328Z,15.4
2022-08-23T20:29:43.379Z,15.4
2022-08-23T20:34:41.586Z,15.5
2022-08-23T20:39:40.207Z,15.3
2022-08-23T20:44:38.615Z,15.3
2022-08-23T20:49:37.015Z,15.4
2022-08-23T20:54:35.692Z,15.6
2022-08-23T20:59:33.840Z,15.5
2022-08-23T21:04:32.371Z,15.5
2022-08-23T21:09:31.198Z,15.5
2022-08-23T21:14:30.495Z,15.4
2022-08-23T21:19:28.654Z,15.5
2022-08-23T21:24:26.913Z,15.4
2022-08-23T21:29:24.887Z,15.3
2022-08-23T21:34:22.992Z,15.3
2022-08-23T21:39:21.158Z,15.2
2022-08-23T21:44:19.453Z,15.1
2022-08-23T21:49:17.551Z,15
2022-08-23T21:54:15.744Z,15
2022-08-23T21:59:13.903Z,15
2022-08-23T22:04:12.075Z,15
2022-08-23T22:09:10.475Z,15
2022-08-23T22:14:08.857Z,15.2
2022-08-23T22:19:07.123Z,15.1
2022-08-23T22:24:05.509Z,15.1
2022-08-23T22:29:03.905Z,15.2
2022-08-23T22:34:02.195Z,15.2
2022-08-23T22:39:00.432Z,15.1
2022-08-23T22:43:58.490Z,15.1
2022-08-23T22:48:56.812Z,15.2
2022-08-23T22:53:55.103Z,15.2
2022-08-23T22:58:53.563Z,15.4
2022-08-23T23:03:52.247Z,15.5
2022-08-23T23:08:50.313Z,15.6
2022-08-23T23:13:48.640Z,15.8
2022-08-23T23:18:47.074Z,16
2022-08-23T23:23:45.384Z,16
2022-08-23T23:28:43.438Z,15.9
2022-08-23T23:33:42.021Z,15.9
2022-08-23T23:38:40.700Z,16.1
2022-08-23T23:43:39.174Z,16.2
2022-08-23T23:48:37.477Z,16.3
2022-08-23T23:53:35.758Z,16.2
2022-08-23T23:58:34.161Z,16.3
